Terminal Aerodrome Forecast
Issued by NWS Atlanta, GA

Home | Current Version | Previous Version | Text Only | Print | Product List | Glossary On
Versions: 1 2 3 4 5 6 7 8 9 10 11 12 13 14 15 16 17 18 19 20 21 22 23 24 25 26 27 28 29 30 31 32 33 34 35 36 37 38 39 40
000
FTUS42 KFFC 300734 AAA
TAFATL
TAF AMD
KATL 300734Z 3008/0112 15007KT P6SM SCT060 BKN250
     FM301100 14008KT P6SM BKN020
     FM301500 16010G18KT P6SM BKN035
     FM301800 16013G23KT P6SM BKN045
     FM302000 16013G23KT P6SM SCT050 SCT250
     FM010200 17010G20KT P6SM FEW050 BKN250
     FM010800 17010G18KT P6SM VCSH SCT012 BKN022 PROB30 0110/0112
      2SM TSRA BKN012CB OVC022=

USA.gov is the U.S. government's official web portal to all federal, state and local government web resources and services.